sensor_id;sensor_type;location;lat;lon;timestamp;temperature;humidity
24224;DHT22;12359;49.716;9.212;2022-09-21T00:00:46;8.00;48.50
24224;DHT22;12359;49.716;9.212;2022-09-21T00:03:13;8.00;49.80
24224;DHT22;12359;49.716;9.212;2022-09-21T00:05:39;8.00;51.00
24224;DHT22;12359;49.716;9.212;2022-09-21T00:08:06;7.90;51.20
24224;DHT22;12359;49.716;9.212;2022-09-21T00:10:32;7.90;52.20
24224;DHT22;12359;49.716;9.212;2022-09-21T00:12:59;8.00;54.00
24224;DHT22;12359;49.716;9.212;2022-09-21T00:15:28;7.90;52.40
24224;DHT22;12359;49.716;9.212;2022-09-21T00:17:55;7.90;48.20
24224;DHT22;12359;49.716;9.212;2022-09-21T00:20:22;7.80;50.00
24224;DHT22;12359;49.716;9.212;2022-09-21T00:22:49;7.90;50.30
24224;DHT22;12359;49.716;9.212;2022-09-21T00:25:15;7.90;51.80
24224;DHT22;12359;49.716;9.212;2022-09-21T00:27:41;7.80;51.30
24224;DHT22;12359;49.716;9.212;2022-09-21T00:30:08;7.80;51.60
24224;DHT22;12359;49.716;9.212;2022-09-21T00:32:35;7.80;53.20
24224;DHT22;12359;49.716;9.212;2022-09-21T00:35:03;7.80;53.10
24224;DHT22;12359;49.716;9.212;2022-09-21T00:37:29;7.80;54.20
24224;DHT22;12359;49.716;9.212;2022-09-21T00:39:55;7.80;54.60
24224;DHT22;12359;49.716;9.212;2022-09-21T00:42:33;7.80;57.00
24224;DHT22;12359;49.716;9.212;2022-09-21T00:44:59;7.90;56.20
24224;DHT22;12359;49.716;9.212;2022-09-21T00:47:31;7.90;54.50
24224;DHT22;12359;49.716;9.212;2022-09-21T00:49:59;7.90;54.40
24224;DHT22;12359;49.716;9.212;2022-09-21T00:52:28;8.00;55.50
24224;DHT22;12359;49.716;9.212;2022-09-21T00:54:59;7.90;52.20
24224;DHT22;12359;49.716;9.212;2022-09-21T00:57:28;8.00;54.50
24224;DHT22;12359;49.716;9.212;2022-09-21T01:00:00;8.00;53.90
24224;DHT22;12359;49.716;9.212;2022-09-21T01:02:27;8.00;52.90
24224;DHT22;12359;49.716;9.212;2022-09-21T01:04:54;8.00;53.20
24224;DHT22;12359;49.716;9.212;2022-09-21T01:07:32;8.00;53.90
24224;DHT22;12359;49.716;9.212;2022-09-21T01:10:11;8.00;55.00
24224;DHT22;12359;49.716;9.212;2022-09-21T01:12:46;8.00;57.30
24224;DHT22;12359;49.716;9.212;2022-09-21T01:32:10;8.20;69.30
24224;DHT22;12359;49.716;9.212;2022-09-21T01:34:45;8.20;69.50
24224;DHT22;12359;49.716;9.212;2022-09-21T01:37:56;8.30;70.80
24224;DHT22;12359;49.716;9.212;2022-09-21T01:40:29;8.30;69.90
24224;DHT22;12359;49.716;9.212;2022-09-21T01:42:56;8.30;71.80
24224;DHT22;12359;49.716;9.212;2022-09-21T01:45:35;8.40;73.10
24224;DHT22;12359;49.716;9.212;2022-09-21T01:48:02;8.30;70.80
24224;DHT22;12359;49.716;9.212;2022-09-21T01:50:36;8.30;68.30
24224;DHT22;12359;49.716;9.212;2022-09-21T01:53:27;8.30;66.50
24224;DHT22;12359;49.716;9.212;2022-09-21T01:55:58;8.20;65.40
24224;DHT22;12359;49.716;9.212;2022-09-21T01:58:35;8.20;67.50
24224;DHT22;12359;49.716;9.212;2022-09-21T02:01:02;8.20;70.50
24224;DHT22;12359;49.716;9.212;2022-09-21T02:03:36;8.10;69.90
24224;DHT22;12359;49.716;9.212;2022-09-21T02:06:03;8.00;71.70
24224;DHT22;12359;49.716;9.212;2022-09-21T02:08:31;8.00;74.40
24224;DHT22;12359;49.716;9.212;2022-09-21T02:11:02;8.10;78.60
24224;DHT22;12359;49.716;9.212;2022-09-21T02:13:32;8.10;78.90
24224;DHT22;12359;49.716;9.212;2022-09-21T02:19:36;8.20;75.50
24224;DHT22;12359;49.716;9.212;2022-09-21T02:23:33;8.10;67.20
24224;DHT22;12359;49.716;9.212;2022-09-21T02:28:27;8.00;74.80
24224;DHT22;12359;49.716;9.212;2022-09-21T02:31:13;8.00;76.40
24224;DHT22;12359;49.716;9.212;2022-09-21T02:33:54;8.10;70.80
24224;DHT22;12359;49.716;9.212;2022-09-21T02:36:30;8.00;67.90
24224;DHT22;12359;49.716;9.212;2022-09-21T02:39:08;8.00;67.00
24224;DHT22;12359;49.716;9.212;2022-09-21T02:44:34;8.00;67.70
24224;DHT22;12359;49.716;9.212;2022-09-21T02:47:26;7.90;60.60
24224;DHT22;12359;49.716;9.212;2022-09-21T02:50:00;7.80;63.30
24224;DHT22;12359;49.716;9.212;2022-09-21T02:52:28;7.80;68.20
24224;DHT22;12359;49.716;9.212;2022-09-21T02:54:55;7.90;73.70
24224;DHT22;12359;49.716;9.212;2022-09-21T02:57:22;7.80;75.20
24224;DHT22;12359;49.716;9.212;2022-09-21T02:59:49;7.80;80.00
24224;DHT22;12359;49.716;9.212;2022-09-21T03:02:15;7.80;81.40
24224;DHT22;12359;49.716;9.212;2022-09-21T03:04:44;7.80;81.00
24224;DHT22;12359;49.716;9.212;2022-09-21T03:07:15;7.70;79.20
24224;DHT22;12359;49.716;9.212;2022-09-21T03:09:41;7.60;79.80
24224;DHT22;12359;49.716;9.212;2022-09-21T03:12:07;7.50;83.80
24224;DHT22;12359;49.716;9.212;2022-09-21T03:14:33;7.50;85.50
24224;DHT22;12359;49.716;9.212;2022-09-21T03:16:59;7.50;86.70
24224;DHT22;12359;49.716;9.212;2022-09-21T03:19:25;7.50;88.90
24224;DHT22;12359;49.716;9.212;2022-09-21T03:21:51;7.50;90.20
24224;DHT22;12359;49.716;9.212;2022-09-21T03:24:19;7.50;90.20
24224;DHT22;12359;49.716;9.212;2022-09-21T03:27:04;7.50;88.40
24224;DHT22;12359;49.716;9.212;2022-09-21T03:29:30;7.50;89.90
24224;DHT22;12359;49.716;9.212;2022-09-21T03:31:56;7.50;87.90
24224;DHT22;12359;49.716;9.212;2022-09-21T03:34:21;7.40;86.30
24224;DHT22;12359;49.716;9.212;2022-09-21T03:36:48;7.40;89.40
24224;DHT22;12359;49.716;9.212;2022-09-21T03:39:13;7.30;88.70
24224;DHT22;12359;49.716;9.212;2022-09-21T03:41:39;7.20;88.90
24224;DHT22;12359;49.716;9.212;2022-09-21T03:44:05;7.30;90.80
24224;DHT22;12359;49.716;9.212;2022-09-21T03:46:33;7.30;91.80
24224;DHT22;12359;49.716;9.212;2022-09-21T03:49:01;7.30;91.90
24224;DHT22;12359;49.716;9.212;2022-09-21T03:51:27;7.30;92.00
24224;DHT22;12359;49.716;9.212;2022-09-21T03:53:56;7.20;91.30
24224;DHT22;12359;49.716;9.212;2022-09-21T03:56:22;7.30;91.90
24224;DHT22;12359;49.716;9.212;2022-09-21T03:58:47;7.20;91.40
24224;DHT22;12359;49.716;9.212;2022-09-21T04:01:13;7.20;91.70
24224;DHT22;12359;49.716;9.212;2022-09-21T04:03:39;7.20;91.70
24224;DHT22;12359;49.716;9.212;2022-09-21T04:06:09;7.20;92.20
24224;DHT22;12359;49.716;9.212;2022-09-21T04:08:35;7.30;92.40
24224;DHT22;12359;49.716;9.212;2022-09-21T04:11:00;7.20;90.50
24224;DHT22;12359;49.716;9.212;2022-09-21T04:13:26;7.30;90.60
24224;DHT22;12359;49.716;9.212;2022-09-21T04:15:52;7.20;90.00
24224;DHT22;12359;49.716;9.212;2022-09-21T04:18:18;7.20;90.30
24224;DHT22;12359;49.716;9.212;2022-09-21T04:20:44;7.20;89.00
24224;DHT22;12359;49.716;9.212;2022-09-21T04:23:10;7.10;90.20
24224;DHT22;12359;49.716;9.212;2022-09-21T04:25:35;7.10;87.20
24224;DHT22;12359;49.716;9.212;2022-09-21T04:28:01;7.00;89.10
24224;DHT22;12359;49.716;9.212;2022-09-21T04:30:27;6.90;89.90
24224;DHT22;12359;49.716;9.212;2022-09-21T04:32:53;6.90;90.80
24224;DHT22;12359;49.716;9.212;2022-09-21T04:35:19;6.90;91.90
24224;DHT22;12359;49.716;9.212;2022-09-21T04:37:45;6.90;92.00
24224;DHT22;12359;49.716;9.212;2022-09-21T04:40:10;6.90;91.90
24224;DHT22;12359;49.716;9.212;2022-09-21T04:42:36;6.90;91.60
24224;DHT22;12359;49.716;9.212;2022-09-21T04:45:02;6.90;93.00
24224;DHT22;12359;49.716;9.212;2022-09-21T04:47:29;6.90;92.20
24224;DHT22;12359;49.716;9.212;2022-09-21T04:49:55;6.90;92.40
24224;DHT22;12359;49.716;9.212;2022-09-21T04:52:20;6.90;92.80
24224;DHT22;12359;49.716;9.212;2022-09-21T04:54:46;6.90;93.10
24224;DHT22;12359;49.716;9.212;2022-09-21T04:57:13;6.90;93.30
24224;DHT22;12359;49.716;9.212;2022-09-21T04:59:39;6.90;92.80
24224;DHT22;12359;49.716;9.212;2022-09-21T05:02:05;6.90;92.90
24224;DHT22;12359;49.716;9.212;2022-09-21T05:04:30;7.00;92.70
24224;DHT22;12359;49.716;9.212;2022-09-21T05:06:56;6.90;92.50
24224;DHT22;12359;49.716;9.212;2022-09-21T05:09:23;6.90;91.80
24224;DHT22;12359;49.716;9.212;2022-09-21T05:12:08;6.90;91.50
24224;DHT22;12359;49.716;9.212;2022-09-21T05:14:34;6.90;91.60
24224;DHT22;12359;49.716;9.212;2022-09-21T05:17:00;6.90;92.10
24224;DHT22;12359;49.716;9.212;2022-09-21T05:19:26;6.90;91.60
24224;DHT22;12359;49.716;9.212;2022-09-21T05:21:52;6.90;91.70
24224;DHT22;12359;49.716;9.212;2022-09-21T05:24:17;7.00;91.70
24224;DHT22;12359;49.716;9.212;2022-09-21T05:26:43;7.10;91.80
24224;DHT22;12359;49.716;9.212;2022-09-21T05:29:09;7.20;92.90
24224;DHT22;12359;49.716;9.212;2022-09-21T05:40:12;7.30;77.90
24224;DHT22;12359;49.716;9.212;2022-09-21T05:42:39;7.30;82.50
24224;DHT22;12359;49.716;9.212;2022-09-21T05:45:05;7.20;82.20
24224;DHT22;12359;49.716;9.212;2022-09-21T05:47:38;7.30;82.40
24224;DHT22;12359;49.716;9.212;2022-09-21T05:55:57;7.30;80.00
24224;DHT22;12359;49.716;9.212;2022-09-21T05:59:01;7.20;79.10
24224;DHT22;12359;49.716;9.212;2022-09-21T06:04:13;7.10;88.50
24224;DHT22;12359;49.716;9.212;2022-09-21T06:06:38;7.00;86.50
24224;DHT22;12359;49.716;9.212;2022-09-21T06:09:06;7.00;90.00
24224;DHT22;12359;49.716;9.212;2022-09-21T06:11:32;7.00;88.50
24224;DHT22;12359;49.716;9.212;2022-09-21T06:13:59;7.00;89.00
24224;DHT22;12359;49.716;9.212;2022-09-21T06:16:26;7.00;90.20
24224;DHT22;12359;49.716;9.212;2022-09-21T06:18:52;6.90;90.60
24224;DHT22;12359;49.716;9.212;2022-09-21T06:21:17;6.90;90.70
24224;DHT22;12359;49.716;9.212;2022-09-21T06:23:43;6.90;90.00
24224;DHT22;12359;49.716;9.212;2022-09-21T06:26:08;6.90;90.70
24224;DHT22;12359;49.716;9.212;2022-09-21T06:28:34;6.90;90.10
24224;DHT22;12359;49.716;9.212;2022-09-21T06:31:00;6.90;88.40
24224;DHT22;12359;49.716;9.212;2022-09-21T06:33:25;7.00;87.70
24224;DHT22;12359;49.716;9.212;2022-09-21T06:35:53;7.00;83.40
24224;DHT22;12359;49.716;9.212;2022-09-21T06:38:19;7.00;84.70
24224;DHT22;12359;49.716;9.212;2022-09-21T06:40:45;7.00;84.00
24224;DHT22;12359;49.716;9.212;2022-09-21T06:43:10;6.90;82.00
24224;DHT22;12359;49.716;9.212;2022-09-21T06:45:36;6.90;86.00
24224;DHT22;12359;49.716;9.212;2022-09-21T06:48:02;7.00;85.90
24224;DHT22;12359;49.716;9.212;2022-09-21T06:50:27;7.00;83.00
24224;DHT22;12359;49.716;9.212;2022-09-21T06:52:53;7.00;81.30
24224;DHT22;12359;49.716;9.212;2022-09-21T06:55:19;7.10;83.70
24224;DHT22;12359;49.716;9.212;2022-09-21T06:57:45;7.10;82.90
24224;DHT22;12359;49.716;9.212;2022-09-21T07:00:11;7.10;78.50
24224;DHT22;12359;49.716;9.212;2022-09-21T07:02:39;7.10;82.10
24224;DHT22;12359;49.716;9.212;2022-09-21T07:05:06;7.10;80.50
24224;DHT22;12359;49.716;9.212;2022-09-21T07:07:32;7.20;80.30
24224;DHT22;12359;49.716;9.212;2022-09-21T07:09:58;7.20;81.20
24224;DHT22;12359;49.716;9.212;2022-09-21T07:12:27;7.20;79.00
24224;DHT22;12359;49.716;9.212;2022-09-21T07:14:53;7.20;80.30
24224;DHT22;12359;49.716;9.212;2022-09-21T07:17:18;7.20;80.10
24224;DHT22;12359;49.716;9.212;2022-09-21T07:19:44;7.30;80.30
24224;DHT22;12359;49.716;9.212;2022-09-21T07:22:10;7.50;79.00
24224;DHT22;12359;49.716;9.212;2022-09-21T07:24:35;7.60;78.10
24224;DHT22;12359;49.716;9.212;2022-09-21T07:27:01;7.70;77.60
24224;DHT22;12359;49.716;9.212;2022-09-21T07:29:27;7.80;73.30
24224;DHT22;12359;49.716;9.212;2022-09-21T07:31:52;8.00;69.80
24224;DHT22;12359;49.716;9.212;2022-09-21T07:34:18;8.10;67.20
24224;DHT22;12359;49.716;9.212;2022-09-21T07:36:44;8.20;57.00
24224;DHT22;12359;49.716;9.212;2022-09-21T07:39:10;8.20;50.50
24224;DHT22;12359;49.716;9.212;2022-09-21T07:41:36;8.20;44.60
24224;DHT22;12359;49.716;9.212;2022-09-21T07:44:02;8.30;52.10
24224;DHT22;12359;49.716;9.212;2022-09-21T07:46:28;8.50;53.30
24224;DHT22;12359;49.716;9.212;2022-09-21T07:48:55;8.70;49.40
24224;DHT22;12359;49.716;9.212;2022-09-21T07:51:21;9.00;36.10
24224;DHT22;12359;49.716;9.212;2022-09-21T07:53:47;9.30;27.00
24224;DHT22;12359;49.716;9.212;2022-09-21T07:56:16;9.40;1.00
24224;DHT22;12359;49.716;9.212;2022-09-21T07:58:42;9.50;3.80
24224;DHT22;12359;49.716;9.212;2022-09-21T08:01:27;9.60;1.00
24224;DHT22;12359;49.716;9.212;2022-09-21T08:03:54;9.90;1.00
24224;DHT22;12359;49.716;9.212;2022-09-21T08:06:21;10.30;1.00
24224;DHT22;12359;49.716;9.212;2022-09-21T08:08:47;10.70;1.00
24224;DHT22;12359;49.716;9.212;2022-09-21T08:11:18;11.20;1.00
24224;DHT22;12359;49.716;9.212;2022-09-21T08:13:53;12.00;99.90
24224;DHT22;12359;49.716;9.212;2022-09-21T08:16:19;12.70;59.80
24224;DHT22;12359;49.716;9.212;2022-09-21T08:18:45;14.00;99.90
24224;DHT22;12359;49.716;9.212;2022-09-21T08:21:11;15.30;99.90
24224;DHT22;12359;49.716;9.212;2022-09-21T08:23:37;16.10;1.00
24224;DHT22;12359;49.716;9.212;2022-09-21T08:26:06;17.40;1.00
24224;DHT22;12359;49.716;9.212;2022-09-21T08:28:33;18.00;99.90
24224;DHT22;12359;49.716;9.212;2022-09-21T08:31:06;18.50;1.00
24224;DHT22;12359;49.716;9.212;2022-09-21T08:33:35;18.60;99.90
24224;DHT22;12359;49.716;9.212;2022-09-21T08:36:01;19.00;99.90
24224;DHT22;12359;49.716;9.212;2022-09-21T08:38:33;19.60;99.90
24224;DHT22;12359;49.716;9.212;2022-09-21T08:41:00;19.90;99.90
24224;DHT22;12359;49.716;9.212;2022-09-21T08:43:34;20.00;99.90
24224;DHT22;12359;49.716;9.212;2022-09-21T08:46:37;20.20;99.90
24224;DHT22;12359;49.716;9.212;2022-09-21T08:51:35;19.30;99.90
24224;DHT22;12359;49.716;9.212;2022-09-21T08:54:14;19.80;99.90
24224;DHT22;12359;49.716;9.212;2022-09-21T08:56:41;20.10;99.90
24224;DHT22;12359;49.716;9.212;2022-09-21T08:59:12;20.30;99.90
24224;DHT22;12359;49.716;9.212;2022-09-21T09:11:06;21.00;42.40
24224;DHT22;12359;49.716;9.212;2022-09-21T09:22:05;21.20;47.10
24224;DHT22;12359;49.716;9.212;2022-09-21T09:24:40;21.30;39.30
24224;DHT22;12359;49.716;9.212;2022-09-21T09:27:27;21.20;31.50
24224;DHT22;12359;49.716;9.212;2022-09-21T09:32:48;21.70;33.00
24224;DHT22;12359;49.716;9.212;2022-09-21T09:35:39;22.20;20.50
24224;DHT22;12359;49.716;9.212;2022-09-21T09:51:51;21.80;1.00
24224;DHT22;12359;49.716;9.212;2022-09-21T09:54:17;21.60;1.00
24224;DHT22;12359;49.716;9.212;2022-09-21T09:56:46;21.40;1.00
24224;DHT22;12359;49.716;9.212;2022-09-21T09:59:42;21.10;1.00
24224;DHT22;12359;49.716;9.212;2022-09-21T10:02:29;21.50;1.00
24224;DHT22;12359;49.716;9.212;2022-09-21T10:04:57;21.40;1.00
24224;DHT22;12359;49.716;9.212;2022-09-21T10:07:41;21.40;1.00
24224;DHT22;12359;49.716;9.212;2022-09-21T10:10:30;20.90;1.00
24224;DHT22;12359;49.716;9.212;2022-09-21T10:13:13;20.50;1.00
24224;DHT22;12359;49.716;9.212;2022-09-21T10:15:53;20.70;1.00
24224;DHT22;12359;49.716;9.212;2022-09-21T10:18:28;21.10;1.00
24224;DHT22;12359;49.716;9.212;2022-09-21T10:21:02;21.10;1.00
24224;DHT22;12359;49.716;9.212;2022-09-21T10:23:30;20.80;1.00
24224;DHT22;12359;49.716;9.212;2022-09-21T10:26:11;20.90;1.00
24224;DHT22;12359;49.716;9.212;2022-09-21T10:34:18;21.30;1.00
24224;DHT22;12359;49.716;9.212;2022-09-21T10:36:49;21.90;1.00
24224;DHT22;12359;49.716;9.212;2022-09-21T10:42:10;22.50;1.00
24224;DHT22;12359;49.716;9.212;2022-09-21T10:44:42;22.60;1.00
24224;DHT22;12359;49.716;9.212;2022-09-21T10:47:18;21.80;1.00
24224;DHT22;12359;49.716;9.212;2022-09-21T10:49:53;21.60;1.00
24224;DHT22;12359;49.716;9.212;2022-09-21T10:52:31;22.10;1.00
24224;DHT22;12359;49.716;9.212;2022-09-21T10:54:57;22.10;1.00
24224;DHT22;12359;49.716;9.212;2022-09-21T10:57:25;21.60;1.00
24224;DHT22;12359;49.716;9.212;2022-09-21T10:59:51;21.60;1.00
24224;DHT22;12359;49.716;9.212;2022-09-21T11:02:47;21.50;1.00
24224;DHT22;12359;49.716;9.212;2022-09-21T11:05:35;21.60;1.00
24224;DHT22;12359;49.716;9.212;2022-09-21T11:08:11;21.40;1.00
24224;DHT22;12359;49.716;9.212;2022-09-21T11:13:24;21.20;1.00
24224;DHT22;12359;49.716;9.212;2022-09-21T11:16:00;21.30;1.00
24224;DHT22;12359;49.716;9.212;2022-09-21T11:21:04;20.80;1.00
24224;DHT22;12359;49.716;9.212;2022-09-21T11:23:54;20.90;1.00
24224;DHT22;12359;49.716;9.212;2022-09-21T11:26:47;20.70;1.00
24224;DHT22;12359;49.716;9.212;2022-09-21T11:29:51;20.70;1.00
24224;DHT22;12359;49.716;9.212;2022-09-21T11:54:35;20.40;1.00
24224;DHT22;12359;49.716;9.212;2022-09-21T11:57:11;20.50;1.00
24224;DHT22;12359;49.716;9.212;2022-09-21T12:08:39;19.90;1.00
24224;DHT22;12359;49.716;9.212;2022-09-21T12:21:58;20.60;1.00
24224;DHT22;12359;49.716;9.212;2022-09-21T12:27:39;20.10;1.00
24224;DHT22;12359;49.716;9.212;2022-09-21T12:30:18;20.50;1.00
24224;DHT22;12359;49.716;9.212;2022-09-21T12:35:48;19.80;1.00
24224;DHT22;12359;49.716;9.212;2022-09-21T12:38:16;19.90;1.00
24224;DHT22;12359;49.716;9.212;2022-09-21T12:48:59;19.70;1.00
24224;DHT22;12359;49.716;9.212;2022-09-21T12:51:32;19.70;1.00
24224;DHT22;12359;49.716;9.212;2022-09-21T13:00:04;19.50;1.00
24224;DHT22;12359;49.716;9.212;2022-09-21T13:08:26;19.70;1.00
24224;DHT22;12359;49.716;9.212;2022-09-21T13:11:01;19.80;1.00
24224;DHT22;12359;49.716;9.212;2022-09-21T13:13:50;20.00;1.00
24224;DHT22;12359;49.716;9.212;2022-09-21T13:16:37;20.00;1.00
24224;DHT22;12359;49.716;9.212;2022-09-21T13:21:39;19.70;1.00
24224;DHT22;12359;49.716;9.212;2022-09-21T13:24:06;19.70;1.00
24224;DHT22;12359;49.716;9.212;2022-09-21T13:26:57;19.70;1.00
24224;DHT22;12359;49.716;9.212;2022-09-21T13:29:32;19.80;1.00
24224;DHT22;12359;49.716;9.212;2022-09-21T13:31:59;19.60;1.00
24224;DHT22;12359;49.716;9.212;2022-09-21T13:34:33;19.50;1.00
24224;DHT22;12359;49.716;9.212;2022-09-21T13:47:36;19.40;1.00
24224;DHT22;12359;49.716;9.212;2022-09-21T13:50:28;19.40;1.00
24224;DHT22;12359;49.716;9.212;2022-09-21T13:52:58;19.30;1.00
24224;DHT22;12359;49.716;9.212;2022-09-21T13:58:14;19.20;1.00
24224;DHT22;12359;49.716;9.212;2022-09-21T14:00:52;19.20;1.00
24224;DHT22;12359;49.716;9.212;2022-09-21T14:03:35;19.30;1.00
24224;DHT22;12359;49.716;9.212;2022-09-21T14:06:27;19.20;1.00
24224;DHT22;12359;49.716;9.212;2022-09-21T14:09:00;18.90;1.00
24224;DHT22;12359;49.716;9.212;2022-09-21T14:11:33;19.00;1.00
24224;DHT22;12359;49.716;9.212;2022-09-21T14:14:21;19.20;1.00
24224;DHT22;12359;49.716;9.212;2022-09-21T14:16:54;19.20;1.00
24224;DHT22;12359;49.716;9.212;2022-09-21T14:24:48;19.30;1.00
24224;DHT22;12359;49.716;9.212;2022-09-21T14:27:41;19.20;1.00
24224;DHT22;12359;49.716;9.212;2022-09-21T14:30:17;19.10;1.00
24224;DHT22;12359;49.716;9.212;2022-09-21T14:35:38;18.90;1.00
24224;DHT22;12359;49.716;9.212;2022-09-21T14:40:39;18.80;1.00
24224;DHT22;12359;49.716;9.212;2022-09-21T14:43:16;18.70;1.00
24224;DHT22;12359;49.716;9.212;2022-09-21T15:02:41;18.00;1.00
24224;DHT22;12359;49.716;9.212;2022-09-21T15:05:36;17.90;1.00
24224;DHT22;12359;49.716;9.212;2022-09-21T15:08:41;17.90;1.00
24224;DHT22;12359;49.716;9.212;2022-09-21T15:11:38;18.00;1.00
24224;DHT22;12359;49.716;9.212;2022-09-21T15:14:36;17.90;1.00
24224;DHT22;12359;49.716;9.212;2022-09-21T15:17:26;18.00;1.00
24224;DHT22;12359;49.716;9.212;2022-09-21T15:19:57;18.00;1.00
24224;DHT22;12359;49.716;9.212;2022-09-21T15:22:25;17.80;1.00
24224;DHT22;12359;49.716;9.212;2022-09-21T15:24:53;17.80;1.00
24224;DHT22;12359;49.716;9.212;2022-09-21T15:27:25;17.80;1.00
24224;DHT22;12359;49.716;9.212;2022-09-21T15:29:53;17.70;1.00
24224;DHT22;12359;49.716;9.212;2022-09-21T15:32:39;17.70;1.00
24224;DHT22;12359;49.716;9.212;2022-09-21T15:35:21;17.70;1.00
24224;DHT22;12359;49.716;9.212;2022-09-21T15:37:48;17.70;1.00
24224;DHT22;12359;49.716;9.212;2022-09-21T15:40:20;17.80;1.00
24224;DHT22;12359;49.716;9.212;2022-09-21T15:48:23;17.60;1.00
24224;DHT22;12359;49.716;9.212;2022-09-21T15:50:55;17.50;1.00
24224;DHT22;12359;49.716;9.212;2022-09-21T15:53:37;17.40;1.00
24224;DHT22;12359;49.716;9.212;2022-09-21T15:56:05;17.40;1.00
24224;DHT22;12359;49.716;9.212;2022-09-21T16:01:13;17.20;1.00
24224;DHT22;12359;49.716;9.212;2022-09-21T16:03:40;17.20;1.00
24224;DHT22;12359;49.716;9.212;2022-09-21T16:08:47;16.90;1.00
24224;DHT22;12359;49.716;9.212;2022-09-21T16:13:45;16.90;1.00
24224;DHT22;12359;49.716;9.212;2022-09-21T16:16:29;16.90;1.00
24224;DHT22;12359;49.716;9.212;2022-09-21T16:18:56;16.80;1.00
24224;DHT22;12359;49.716;9.212;2022-09-21T16:23:54;16.70;1.00
24224;DHT22;12359;49.716;9.212;2022-09-21T16:26:26;16.70;1.00
24224;DHT22;12359;49.716;9.212;2022-09-21T16:29:19;16.60;1.00
24224;DHT22;12359;49.716;9.212;2022-09-21T16:31:45;16.60;1.00
24224;DHT22;12359;49.716;9.212;2022-09-21T16:36:51;16.50;1.00
24224;DHT22;12359;49.716;9.212;2022-09-21T16:39:18;16.40;1.00
24224;DHT22;12359;49.716;9.212;2022-09-21T16:41:55;16.30;1.00
24224;DHT22;12359;49.716;9.212;2022-09-21T16:44:25;16.30;1.00
24224;DHT22;12359;49.716;9.212;2022-09-21T16:47:00;16.30;1.00
24224;DHT22;12359;49.716;9.212;2022-09-21T16:49:31;16.10;1.00
24224;DHT22;12359;49.716;9.212;2022-09-21T16:51:58;16.00;1.00
24224;DHT22;12359;49.716;9.212;2022-09-21T16:54:24;15.70;1.00
24224;DHT22;12359;49.716;9.212;2022-09-21T16:56:53;15.60;1.00
24224;DHT22;12359;49.716;9.212;2022-09-21T16:59:20;15.50;1.00
24224;DHT22;12359;49.716;9.212;2022-09-21T17:01:49;15.30;1.00
24224;DHT22;12359;49.716;9.212;2022-09-21T17:04:16;15.20;1.20
24224;DHT22;12359;49.716;9.212;2022-09-21T17:06:42;15.10;95.90
24224;DHT22;12359;49.716;9.212;2022-09-21T17:09:18;15.00;99.90
24224;DHT22;12359;49.716;9.212;2022-09-21T17:11:43;14.90;99.90
24224;DHT22;12359;49.716;9.212;2022-09-21T17:14:11;14.80;1.00
24224;DHT22;12359;49.716;9.212;2022-09-21T17:16:51;14.60;1.00
24224;DHT22;12359;49.716;9.212;2022-09-21T17:19:18;14.50;33.10
24224;DHT22;12359;49.716;9.212;2022-09-21T17:21:44;14.40;99.90
24224;DHT22;12359;49.716;9.212;2022-09-21T17:24:11;14.20;99.90
24224;DHT22;12359;49.716;9.212;2022-09-21T17:26:37;14.10;99.90
24224;DHT22;12359;49.716;9.212;2022-09-21T17:29:04;14.00;1.00
24224;DHT22;12359;49.716;9.212;2022-09-21T17:31:30;13.80;1.00
24224;DHT22;12359;49.716;9.212;2022-09-21T17:33:58;13.80;99.90
24224;DHT22;12359;49.716;9.212;2022-09-21T17:36:32;13.70;99.90
24224;DHT22;12359;49.716;9.212;2022-09-21T17:38:57;13.50;99.90
24224;DHT22;12359;49.716;9.212;2022-09-21T17:47:23;13.20;99.90
24224;DHT22;12359;49.716;9.212;2022-09-21T17:49:53;13.20;26.10
24224;DHT22;12359;49.716;9.212;2022-09-21T17:52:21;13.10;99.90
24224;DHT22;12359;49.716;9.212;2022-09-21T17:55:08;13.00;99.90
24224;DHT22;12359;49.716;9.212;2022-09-21T18:00:20;12.70;2.10
24224;DHT22;12359;49.716;9.212;2022-09-21T18:02:46;12.70;99.90
24224;DHT22;12359;49.716;9.212;2022-09-21T18:05:26;12.60;99.90
24224;DHT22;12359;49.716;9.212;2022-09-21T18:07:53;12.50;99.90
24224;DHT22;12359;49.716;9.212;2022-09-21T18:10:20;12.50;99.90
24224;DHT22;12359;49.716;9.212;2022-09-21T18:21:15;11.80;99.90
24224;DHT22;12359;49.716;9.212;2022-09-21T18:26:42;11.70;99.90
24224;DHT22;12359;49.716;9.212;2022-09-21T18:38:25;11.40;99.90
24224;DHT22;12359;49.716;9.212;2022-09-21T18:46:17;11.40;99.90
24224;DHT22;12359;49.716;9.212;2022-09-21T18:51:37;11.20;99.90
24224;DHT22;12359;49.716;9.212;2022-09-21T18:54:11;11.20;1.00
24224;DHT22;12359;49.716;9.212;2022-09-21T18:56:40;11.00;99.90
24224;DHT22;12359;49.716;9.212;2022-09-21T18:59:08;10.90;1.00
24224;DHT22;12359;49.716;9.212;2022-09-21T19:01:36;10.80;1.00
24224;DHT22;12359;49.716;9.212;2022-09-21T19:04:02;10.70;99.90
24224;DHT22;12359;49.716;9.212;2022-09-21T19:17:36;10.30;1.00
24224;DHT22;12359;49.716;9.212;2022-09-21T19:28:01;10.10;99.90
24224;DHT22;12359;49.716;9.212;2022-09-21T19:30:27;10.00;99.90
24224;DHT22;12359;49.716;9.212;2022-09-21T19:32:55;9.80;99.90
24224;DHT22;12359;49.716;9.212;2022-09-21T19:37:57;9.70;99.90
24224;DHT22;12359;49.716;9.212;2022-09-21T19:40:28;9.70;99.90
24224;DHT22;12359;49.716;9.212;2022-09-21T19:46:05;9.70;99.90
24224;DHT22;12359;49.716;9.212;2022-09-21T19:48:54;9.60;99.90
24224;DHT22;12359;49.716;9.212;2022-09-21T19:51:46;9.50;99.90
24224;DHT22;12359;49.716;9.212;2022-09-21T19:54:15;9.40;99.90
24224;DHT22;12359;49.716;9.212;2022-09-21T19:56:59;9.30;99.90
24224;DHT22;12359;49.716;9.212;2022-09-21T19:59:43;9.30;99.90
24224;DHT22;12359;49.716;9.212;2022-09-21T20:04:47;9.10;1.00
24224;DHT22;12359;49.716;9.212;2022-09-21T20:18:38;8.90;1.00
24224;DHT22;12359;49.716;9.212;2022-09-21T20:21:14;8.90;1.00
24224;DHT22;12359;49.716;9.212;2022-09-21T20:23:41;8.90;1.00
24224;DHT22;12359;49.716;9.212;2022-09-21T20:28:43;8.90;1.00
24224;DHT22;12359;49.716;9.212;2022-09-21T20:31:09;8.80;1.00
24224;DHT22;12359;49.716;9.212;2022-09-21T20:33:35;8.80;1.00
24224;DHT22;12359;49.716;9.212;2022-09-21T20:36:01;8.80;1.00
24224;DHT22;12359;49.716;9.212;2022-09-21T20:38:26;8.70;1.00
24224;DHT22;12359;49.716;9.212;2022-09-21T20:40:52;8.80;1.00
24224;DHT22;12359;49.716;9.212;2022-09-21T20:43:18;8.70;1.00
24224;DHT22;12359;49.716;9.212;2022-09-21T20:45:46;8.60;1.00
24224;DHT22;12359;49.716;9.212;2022-09-21T20:48:14;8.50;1.00
24224;DHT22;12359;49.716;9.212;2022-09-21T20:50:48;8.50;1.00
24224;DHT22;12359;49.716;9.212;2022-09-21T20:53:15;8.50;1.00
24224;DHT22;12359;49.716;9.212;2022-09-21T20:55:41;8.50;1.00
24224;DHT22;12359;49.716;9.212;2022-09-21T20:58:16;8.40;1.00
24224;DHT22;12359;49.716;9.212;2022-09-21T21:00:42;8.40;1.00
24224;DHT22;12359;49.716;9.212;2022-09-21T21:03:09;8.40;1.00
24224;DHT22;12359;49.716;9.212;2022-09-21T21:05:37;8.40;1.00
24224;DHT22;12359;49.716;9.212;2022-09-21T21:08:03;8.40;3.00
24224;DHT22;12359;49.716;9.212;2022-09-21T21:10:29;8.40;7.40
24224;DHT22;12359;49.716;9.212;2022-09-21T21:12:57;8.30;2.40